sensor_id;sensor_type;location;lat;lon;timestamp;P1;durP1;ratioP1;P2;durP2;ratioP2
33495;SDS011;19836;55.812;37.560;2023-04-26T00:00:26;3.25;;;2.65;;
33495;SDS011;19836;55.812;37.560;2023-04-26T00:02:53;3.63;;;2.95;;
33495;SDS011;19836;55.812;37.560;2023-04-26T00:05:20;3.47;;;2.78;;
33495;SDS011;19836;55.812;37.560;2023-04-26T00:07:46;3.15;;;2.70;;
33495;SDS011;19836;55.812;37.560;2023-04-26T00:10:14;3.03;;;2.40;;
33495;SDS011;19836;55.812;37.560;2023-04-26T00:12:40;3.55;;;2.88;;
33495;SDS011;19836;55.812;37.560;2023-04-26T00:15:07;3.67;;;2.58;;
33495;SDS011;19836;55.812;37.560;2023-04-26T00:17:33;2.72;;;2.45;;
33495;SDS011;19836;55.812;37.560;2023-04-26T00:19:59;3.47;;;2.90;;
33495;SDS011;19836;55.812;37.560;2023-04-26T00:22:25;3.15;;;2.60;;
33495;SDS011;19836;55.812;37.560;2023-04-26T00:24:52;3.97;;;3.05;;
33495;SDS011;19836;55.812;37.560;2023-04-26T00:27:18;2.65;;;2.45;;
33495;SDS011;19836;55.812;37.560;2023-04-26T00:29:44;2.70;;;2.50;;
33495;SDS011;19836;55.812;37.560;2023-04-26T00:32:09;4.22;;;2.97;;
33495;SDS011;19836;55.812;37.560;2023-04-26T00:34:36;4.82;;;2.92;;
33495;SDS011;19836;55.812;37.560;2023-04-26T00:37:03;3.88;;;3.03;;
33495;SDS011;19836;55.812;37.560;2023-04-26T00:39:29;3.80;;;3.38;;
33495;SDS011;19836;55.812;37.560;2023-04-26T00:41:56;3.50;;;3.20;;
33495;SDS011;19836;55.812;37.560;2023-04-26T00:44:22;4.35;;;3.60;;
33495;SDS011;19836;55.812;37.560;2023-04-26T00:46:48;4.65;;;3.70;;
33495;SDS011;19836;55.812;37.560;2023-04-26T00:49:18;4.63;;;3.65;;
33495;SDS011;19836;55.812;37.560;2023-04-26T00:51:48;5.00;;;3.70;;
33495;SDS011;19836;55.812;37.560;2023-04-26T00:54:16;5.18;;;3.97;;
33495;SDS011;19836;55.812;37.560;2023-04-26T00:56:44;5.13;;;4.13;;
33495;SDS011;19836;55.812;37.560;2023-04-26T00:59:10;5.15;;;4.25;;
33495;SDS011;19836;55.812;37.560;2023-04-26T01:01:36;4.68;;;4.28;;
33495;SDS011;19836;55.812;37.560;2023-04-26T01:04:03;4.80;;;4.32;;
33495;SDS011;19836;55.812;37.560;2023-04-26T01:06:31;5.43;;;3.90;;
33495;SDS011;19836;55.812;37.560;2023-04-26T01:08:59;5.70;;;4.07;;
33495;SDS011;19836;55.812;37.560;2023-04-26T01:11:29;4.80;;;3.80;;
33495;SDS011;19836;55.812;37.560;2023-04-26T01:13:56;5.25;;;3.63;;
33495;SDS011;19836;55.812;37.560;2023-04-26T01:16:23;4.72;;;3.53;;
33495;SDS011;19836;55.812;37.560;2023-04-26T01:18:50;4.70;;;4.00;;
33495;SDS011;19836;55.812;37.560;2023-04-26T01:21:20;4.10;;;3.63;;
33495;SDS011;19836;55.812;37.560;2023-04-26T01:23:50;6.05;;;4.05;;
33495;SDS011;19836;55.812;37.560;2023-04-26T01:26:16;4.57;;;3.53;;
33495;SDS011;19836;55.812;37.560;2023-04-26T01:28:43;4.07;;;3.50;;
33495;SDS011;19836;55.812;37.560;2023-04-26T01:31:10;4.20;;;3.80;;
33495;SDS011;19836;55.812;37.560;2023-04-26T01:33:36;4.00;;;3.38;;
33495;SDS011;19836;55.812;37.560;2023-04-26T01:36:06;4.40;;;4.00;;
33495;SDS011;19836;55.812;37.560;2023-04-26T01:38:33;4.78;;;3.80;;
33495;SDS011;19836;55.812;37.560;2023-04-26T01:40:59;5.43;;;3.65;;
33495;SDS011;19836;55.812;37.560;2023-04-26T01:43:25;4.57;;;4.18;;
33495;SDS011;19836;55.812;37.560;2023-04-26T01:45:52;5.38;;;3.90;;
33495;SDS011;19836;55.812;37.560;2023-04-26T01:48:28;4.88;;;4.13;;
33495;SDS011;19836;55.812;37.560;2023-04-26T01:50:54;3.97;;;3.53;;
33495;SDS011;19836;55.812;37.560;2023-04-26T01:53:20;5.50;;;4.22;;
33495;SDS011;19836;55.812;37.560;2023-04-26T01:55:46;4.25;;;3.70;;
33495;SDS011;19836;55.812;37.560;2023-04-26T01:58:12;5.85;;;3.90;;
33495;SDS011;19836;55.812;37.560;2023-04-26T02:00:38;4.93;;;3.78;;
33495;SDS011;19836;55.812;37.560;2023-04-26T02:03:04;4.18;;;3.78;;
33495;SDS011;19836;55.812;37.560;2023-04-26T02:05:30;5.57;;;4.03;;
33495;SDS011;19836;55.812;37.560;2023-04-26T02:07:56;4.25;;;3.85;;
33495;SDS011;19836;55.812;37.560;2023-04-26T02:10:22;4.63;;;4.13;;
33495;SDS011;19836;55.812;37.560;2023-04-26T02:12:49;5.65;;;4.47;;
33495;SDS011;19836;55.812;37.560;2023-04-26T02:15:15;6.05;;;4.38;;
33495;SDS011;19836;55.812;37.560;2023-04-26T02:17:41;5.22;;;4.20;;
33495;SDS011;19836;55.812;37.560;2023-04-26T02:20:07;5.00;;;4.28;;
33495;SDS011;19836;55.812;37.560;2023-04-26T02:22:35;4.70;;;4.03;;
33495;SDS011;19836;55.812;37.560;2023-04-26T02:25:01;5.20;;;4.28;;
33495;SDS011;19836;55.812;37.560;2023-04-26T02:27:29;5.78;;;4.10;;
33495;SDS011;19836;55.812;37.560;2023-04-26T02:29:55;4.72;;;4.20;;
33495;SDS011;19836;55.812;37.560;2023-04-26T02:32:22;5.10;;;4.32;;
33495;SDS011;19836;55.812;37.560;2023-04-26T02:34:48;6.22;;;4.88;;
33495;SDS011;19836;55.812;37.560;2023-04-26T02:37:14;5.95;;;4.55;;
33495;SDS011;19836;55.812;37.560;2023-04-26T02:39:40;5.32;;;4.68;;
33495;SDS011;19836;55.812;37.560;2023-04-26T02:42:09;6.85;;;5.22;;
33495;SDS011;19836;55.812;37.560;2023-04-26T02:44:36;8.02;;;5.63;;
33495;SDS011;19836;55.812;37.560;2023-04-26T02:47:04;7.45;;;5.15;;
33495;SDS011;19836;55.812;37.560;2023-04-26T02:49:31;5.72;;;4.75;;
33495;SDS011;19836;55.812;37.560;2023-04-26T02:51:58;5.72;;;4.18;;
33495;SDS011;19836;55.812;37.560;2023-04-26T02:54:25;4.85;;;4.18;;
33495;SDS011;19836;55.812;37.560;2023-04-26T02:56:51;4.18;;;3.78;;
33495;SDS011;19836;55.812;37.560;2023-04-26T02:59:20;7.75;;;5.45;;
33495;SDS011;19836;55.812;37.560;2023-04-26T03:01:47;6.78;;;4.50;;
33495;SDS011;19836;55.812;37.560;2023-04-26T03:04:13;5.78;;;4.90;;
33495;SDS011;19836;55.812;37.560;2023-04-26T03:06:43;5.15;;;4.53;;
33495;SDS011;19836;55.812;37.560;2023-04-26T03:09:09;6.28;;;4.55;;
33495;SDS011;19836;55.812;37.560;2023-04-26T03:11:36;4.90;;;4.40;;
33495;SDS011;19836;55.812;37.560;2023-04-26T03:14:02;6.60;;;4.70;;
33495;SDS011;19836;55.812;37.560;2023-04-26T03:16:29;5.00;;;4.32;;
33495;SDS011;19836;55.812;37.560;2023-04-26T03:18:56;4.55;;;4.07;;
33495;SDS011;19836;55.812;37.560;2023-04-26T03:21:23;4.63;;;4.00;;
33495;SDS011;19836;55.812;37.560;2023-04-26T03:23:49;6.93;;;4.85;;
33495;SDS011;19836;55.812;37.560;2023-04-26T03:26:16;5.53;;;5.03;;
33495;SDS011;19836;55.812;37.560;2023-04-26T03:28:43;5.38;;;4.88;;
33495;SDS011;19836;55.812;37.560;2023-04-26T03:31:09;7.47;;;5.82;;
33495;SDS011;19836;55.812;37.560;2023-04-26T03:33:36;6.57;;;5.85;;
33495;SDS011;19836;55.812;37.560;2023-04-26T03:36:03;6.80;;;6.10;;
33495;SDS011;19836;55.812;37.560;2023-04-26T03:38:31;6.50;;;5.90;;
33495;SDS011;19836;55.812;37.560;2023-04-26T03:40:57;7.38;;;6.50;;
33495;SDS011;19836;55.812;37.560;2023-04-26T03:43:24;7.50;;;6.72;;
33495;SDS011;19836;55.812;37.560;2023-04-26T03:45:51;7.15;;;6.45;;
33495;SDS011;19836;55.812;37.560;2023-04-26T03:48:17;6.97;;;6.18;;
33495;SDS011;19836;55.812;37.560;2023-04-26T03:50:44;7.47;;;6.78;;
33495;SDS011;19836;55.812;37.560;2023-04-26T03:53:11;7.30;;;6.55;;
33495;SDS011;19836;55.812;37.560;2023-04-26T03:55:38;6.90;;;6.28;;
33495;SDS011;19836;55.812;37.560;2023-04-26T03:58:04;7.20;;;6.60;;
33495;SDS011;19836;55.812;37.560;2023-04-26T04:00:33;7.18;;;6.57;;
33495;SDS011;19836;55.812;37.560;2023-04-26T04:03:02;6.50;;;5.63;;
33495;SDS011;19836;55.812;37.560;2023-04-26T04:05:31;7.53;;;5.93;;
33495;SDS011;19836;55.812;37.560;2023-04-26T04:07:58;6.90;;;6.03;;
33495;SDS011;19836;55.812;37.560;2023-04-26T04:10:25;6.22;;;5.57;;
33495;SDS011;19836;55.812;37.560;2023-04-26T04:12:53;5.80;;;5.20;;
33495;SDS011;19836;55.812;37.560;2023-04-26T04:15:19;5.65;;;5.15;;
33495;SDS011;19836;55.812;37.560;2023-04-26T04:17:47;5.72;;;5.22;;
33495;SDS011;19836;55.812;37.560;2023-04-26T04:20:14;4.88;;;4.45;;
33495;SDS011;19836;55.812;37.560;2023-04-26T04:22:41;5.93;;;3.83;;
33495;SDS011;19836;55.812;37.560;2023-04-26T04:25:08;4.70;;;3.78;;
33495;SDS011;19836;55.812;37.560;2023-04-26T04:27:36;4.10;;;3.70;;
33495;SDS011;19836;55.812;37.560;2023-04-26T04:30:04;5.07;;;4.30;;
33495;SDS011;19836;55.812;37.560;2023-04-26T04:32:40;3.53;;;3.15;;
33495;SDS011;19836;55.812;37.560;2023-04-26T04:35:12;3.40;;;3.10;;
33495;SDS011;19836;55.812;37.560;2023-04-26T04:37:40;3.58;;;3.28;;
33495;SDS011;19836;55.812;37.560;2023-04-26T04:40:08;3.58;;;3.28;;
33495;SDS011;19836;55.812;37.560;2023-04-26T04:42:36;3.42;;;3.13;;
33495;SDS011;19836;55.812;37.560;2023-04-26T04:45:15;2.53;;;2.33;;
33495;SDS011;19836;55.812;37.560;2023-04-26T04:47:43;2.38;;;2.05;;
33495;SDS011;19836;55.812;37.560;2023-04-26T04:50:09;2.38;;;1.90;;
33495;SDS011;19836;55.812;37.560;2023-04-26T04:52:36;2.30;;;2.10;;
33495;SDS011;19836;55.812;37.560;2023-04-26T04:55:03;2.08;;;1.75;;
33495;SDS011;19836;55.812;37.560;2023-04-26T04:57:31;1.60;;;1.50;;
33495;SDS011;19836;55.812;37.560;2023-04-26T04:59:57;3.30;;;1.80;;
33495;SDS011;19836;55.812;37.560;2023-04-26T05:02:29;1.50;;;1.40;;
33495;SDS011;19836;55.812;37.560;2023-04-26T05:04:57;1.70;;;1.60;;
33495;SDS011;19836;55.812;37.560;2023-04-26T05:07:24;1.50;;;1.40;;
33495;SDS011;19836;55.812;37.560;2023-04-26T05:09:52;1.60;;;1.50;;
33495;SDS011;19836;55.812;37.560;2023-04-26T05:12:19;1.63;;;1.52;;
33495;SDS011;19836;55.812;37.560;2023-04-26T05:14:46;2.40;;;1.73;;
33495;SDS011;19836;55.812;37.560;2023-04-26T05:17:12;1.48;;;1.35;;
33495;SDS011;19836;55.812;37.560;2023-04-26T05:19:39;3.33;;;3.03;;
33495;SDS011;19836;55.812;37.560;2023-04-26T05:22:06;6.57;;;5.60;;
33495;SDS011;19836;55.812;37.560;2023-04-26T05:24:33;2.75;;;2.40;;
33495;SDS011;19836;55.812;37.560;2023-04-26T05:26:59;1.50;;;1.40;;
33495;SDS011;19836;55.812;37.560;2023-04-26T05:29:42;1.65;;;1.40;;
33495;SDS011;19836;55.812;37.560;2023-04-26T05:32:25;1.30;;;1.20;;
33495;SDS011;19836;55.812;37.560;2023-04-26T05:35:09;1.30;;;1.20;;
33495;SDS011;19836;55.812;37.560;2023-04-26T05:37:35;1.92;;;1.30;;
33495;SDS011;19836;55.812;37.560;2023-04-26T05:40:04;2.50;;;1.40;;
33495;SDS011;19836;55.812;37.560;2023-04-26T05:42:32;1.40;;;1.30;;
33495;SDS011;19836;55.812;37.560;2023-04-26T05:44:59;1.38;;;1.02;;
33495;SDS011;19836;55.812;37.560;2023-04-26T05:47:28;1.35;;;1.25;;
33495;SDS011;19836;55.812;37.560;2023-04-26T05:49:54;3.55;;;1.00;;
33495;SDS011;19836;55.812;37.560;2023-04-26T05:52:21;2.58;;;1.10;;
33495;SDS011;19836;55.812;37.560;2023-04-26T05:54:48;2.15;;;0.98;;
33495;SDS011;19836;55.812;37.560;2023-04-26T05:57:15;1.77;;;1.30;;
33495;SDS011;19836;55.812;37.560;2023-04-26T05:59:42;1.20;;;1.10;;
33495;SDS011;19836;55.812;37.560;2023-04-26T06:02:09;1.20;;;1.10;;
33495;SDS011;19836;55.812;37.560;2023-04-26T06:04:37;1.30;;;1.20;;
33495;SDS011;19836;55.812;37.560;2023-04-26T06:07:09;1.38;;;1.20;;
33495;SDS011;19836;55.812;37.560;2023-04-26T06:09:35;1.65;;;1.10;;
33495;SDS011;19836;55.812;37.560;2023-04-26T06:12:02;3.83;;;1.00;;
33495;SDS011;19836;55.812;37.560;2023-04-26T06:14:31;1.20;;;1.10;;
33495;SDS011;19836;55.812;37.560;2023-04-26T06:17:03;1.00;;;0.90;;
33495;SDS011;19836;55.812;37.560;2023-04-26T06:19:29;3.25;;;1.88;;
33495;SDS011;19836;55.812;37.560;2023-04-26T06:21:55;2.72;;;1.20;;
33495;SDS011;19836;55.812;37.560;2023-04-26T06:24:22;1.95;;;1.13;;
33495;SDS011;19836;55.812;37.560;2023-04-26T06:26:50;3.28;;;1.30;;
33495;SDS011;19836;55.812;37.560;2023-04-26T06:29:16;3.10;;;1.50;;
33495;SDS011;19836;55.812;37.560;2023-04-26T06:31:42;1.50;;;1.25;;
33495;SDS011;19836;55.812;37.560;2023-04-26T06:34:08;3.13;;;1.20;;
33495;SDS011;19836;55.812;37.560;2023-04-26T06:36:34;2.67;;;1.20;;
33495;SDS011;19836;55.812;37.560;2023-04-26T06:39:01;3.22;;;1.52;;
33495;SDS011;19836;55.812;37.560;2023-04-26T06:41:27;2.45;;;2.00;;
33495;SDS011;19836;55.812;37.560;2023-04-26T06:43:53;3.63;;;2.00;;
33495;SDS011;19836;55.812;37.560;2023-04-26T06:46:20;2.00;;;1.85;;
33495;SDS011;19836;55.812;37.560;2023-04-26T06:48:52;2.15;;;1.55;;
33495;SDS011;19836;55.812;37.560;2023-04-26T06:51:19;2.78;;;1.40;;
33495;SDS011;19836;55.812;37.560;2023-04-26T06:53:45;1.55;;;1.27;;
33495;SDS011;19836;55.812;37.560;2023-04-26T06:56:12;2.97;;;1.30;;
33495;SDS011;19836;55.812;37.560;2023-04-26T06:58:41;1.88;;;1.40;;
33495;SDS011;19836;55.812;37.560;2023-04-26T07:01:22;2.38;;;1.27;;
33495;SDS011;19836;55.812;37.560;2023-04-26T07:03:48;1.58;;;1.27;;
33495;SDS011;19836;55.812;37.560;2023-04-26T07:06:14;1.75;;;1.38;;
33495;SDS011;19836;55.812;37.560;2023-04-26T07:08:41;1.48;;;1.20;;
33495;SDS011;19836;55.812;37.560;2023-04-26T07:11:11;3.13;;;1.40;;
33495;SDS011;19836;55.812;37.560;2023-04-26T07:13:37;1.40;;;1.30;;
33495;SDS011;19836;55.812;37.560;2023-04-26T07:16:03;1.50;;;1.27;;
33495;SDS011;19836;55.812;37.560;2023-04-26T07:18:29;1.10;;;1.00;;
33495;SDS011;19836;55.812;37.560;2023-04-26T07:20:56;1.27;;;1.10;;
33495;SDS011;19836;55.812;37.560;2023-04-26T07:23:22;1.30;;;1.20;;
33495;SDS011;19836;55.812;37.560;2023-04-26T07:25:48;1.65;;;1.08;;
33495;SDS011;19836;55.812;37.560;2023-04-26T07:28:14;1.33;;;1.00;;
33495;SDS011;19836;55.812;37.560;2023-04-26T07:30:40;1.10;;;1.08;;
33495;SDS011;19836;55.812;37.560;2023-04-26T07:33:06;1.13;;;1.10;;
33495;SDS011;19836;55.812;37.560;2023-04-26T07:35:32;1.50;;;1.40;;
33495;SDS011;19836;55.812;37.560;2023-04-26T07:38:00;1.30;;;1.20;;
33495;SDS011;19836;55.812;37.560;2023-04-26T07:40:26;1.65;;;1.20;;
33495;SDS011;19836;55.812;37.560;2023-04-26T07:42:53;1.25;;;1.15;;
33495;SDS011;19836;55.812;37.560;2023-04-26T07:45:20;1.45;;;1.33;;
33495;SDS011;19836;55.812;37.560;2023-04-26T07:47:46;1.40;;;1.30;;
33495;SDS011;19836;55.812;37.560;2023-04-26T07:50:12;2.58;;;2.10;;
33495;SDS011;19836;55.812;37.560;2023-04-26T07:52:40;2.40;;;2.20;;
33495;SDS011;19836;55.812;37.560;2023-04-26T07:55:07;2.20;;;2.00;;
33495;SDS011;19836;55.812;37.560;2023-04-26T07:57:33;2.35;;;2.15;;
33495;SDS011;19836;55.812;37.560;2023-04-26T08:00:00;1.70;;;1.60;;
33495;SDS011;19836;55.812;37.560;2023-04-26T08:02:26;4.22;;;2.00;;
33495;SDS011;19836;55.812;37.560;2023-04-26T08:04:51;1.63;;;1.52;;
33495;SDS011;19836;55.812;37.560;2023-04-26T08:07:19;1.80;;;1.70;;
33495;SDS011;19836;55.812;37.560;2023-04-26T08:09:46;2.15;;;1.60;;
33495;SDS011;19836;55.812;37.560;2023-04-26T08:12:13;2.13;;;1.90;;
33495;SDS011;19836;55.812;37.560;2023-04-26T08:14:39;1.70;;;1.60;;
33495;SDS011;19836;55.812;37.560;2023-04-26T08:17:08;2.25;;;1.42;;
33495;SDS011;19836;55.812;37.560;2023-04-26T08:19:35;2.17;;;1.80;;
33495;SDS011;19836;55.812;37.560;2023-04-26T08:22:01;2.17;;;1.98;;
33495;SDS011;19836;55.812;37.560;2023-04-26T08:24:27;2.30;;;1.90;;
33495;SDS011;19836;55.812;37.560;2023-04-26T08:26:53;1.98;;;1.80;;
33495;SDS011;19836;55.812;37.560;2023-04-26T08:29:19;1.75;;;1.65;;
33495;SDS011;19836;55.812;37.560;2023-04-26T08:31:47;4.00;;;1.98;;
33495;SDS011;19836;55.812;37.560;2023-04-26T08:34:13;2.30;;;2.10;;
33495;SDS011;19836;55.812;37.560;2023-04-26T08:36:39;2.85;;;2.40;;
33495;SDS011;19836;55.812;37.560;2023-04-26T08:39:06;1.98;;;1.88;;
33495;SDS011;19836;55.812;37.560;2023-04-26T08:41:36;4.05;;;2.28;;
33495;SDS011;19836;55.812;37.560;2023-04-26T08:44:07;4.20;;;2.05;;
33495;SDS011;19836;55.812;37.560;2023-04-26T08:46:36;2.78;;;2.17;;
33495;SDS011;19836;55.812;37.560;2023-04-26T08:52:08;2.33;;;2.13;;
33495;SDS011;19836;55.812;37.560;2023-04-26T08:54:36;3.03;;;2.75;;
33495;SDS011;19836;55.812;37.560;2023-04-26T08:57:03;2.90;;;2.65;;
33495;SDS011;19836;55.812;37.560;2023-04-26T08:59:29;3.05;;;2.85;;
33495;SDS011;19836;55.812;37.560;2023-04-26T09:01:56;2.30;;;2.10;;
33495;SDS011;19836;55.812;37.560;2023-04-26T09:04:23;2.20;;;1.98;;
33495;SDS011;19836;55.812;37.560;2023-04-26T09:06:48;2.80;;;2.60;;
33495;SDS011;19836;55.812;37.560;2023-04-26T09:09:17;1.95;;;1.85;;
33495;SDS011;19836;55.812;37.560;2023-04-26T09:11:58;2.30;;;2.03;;
33495;SDS011;19836;55.812;37.560;2023-04-26T09:14:26;3.15;;;2.88;;
33495;SDS011;19836;55.812;37.560;2023-04-26T09:16:52;1.92;;;1.83;;
33495;SDS011;19836;55.812;37.560;2023-04-26T09:22:02;2.38;;;2.17;;
33495;SDS011;19836;55.812;37.560;2023-04-26T09:24:44;2.25;;;2.05;;
33495;SDS011;19836;55.812;37.560;2023-04-26T09:27:12;3.05;;;2.85;;
33495;SDS011;19836;55.812;37.560;2023-04-26T09:29:41;2.95;;;2.75;;
33495;SDS011;19836;55.812;37.560;2023-04-26T09:32:22;5.20;;;4.70;;
33495;SDS011;19836;55.812;37.560;2023-04-26T09:34:49;2.97;;;2.78;;
33495;SDS011;19836;55.812;37.560;2023-04-26T09:37:15;5.75;;;3.38;;
33495;SDS011;19836;55.812;37.560;2023-04-26T09:39:41;3.92;;;2.88;;
33495;SDS011;19836;55.812;37.560;2023-04-26T09:42:08;3.40;;;3.20;;
33495;SDS011;19836;55.812;37.560;2023-04-26T09:44:38;3.50;;;3.20;;
33495;SDS011;19836;55.812;37.560;2023-04-26T09:47:07;4.10;;;3.60;;
33495;SDS011;19836;55.812;37.560;2023-04-26T09:49:48;4.30;;;3.67;;
33495;SDS011;19836;55.812;37.560;2023-04-26T09:52:16;3.95;;;3.65;;
33495;SDS011;19836;55.812;37.560;2023-04-26T09:54:45;4.22;;;3.83;;
33495;SDS011;19836;55.812;37.560;2023-04-26T09:57:16;4.50;;;4.10;;
33495;SDS011;19836;55.812;37.560;2023-04-26T09:59:45;4.45;;;4.05;;
33495;SDS011;19836;55.812;37.560;2023-04-26T10:02:22;4.35;;;3.97;;
33495;SDS011;19836;55.812;37.560;2023-04-26T10:04:53;4.47;;;4.07;;
33495;SDS011;19836;55.812;37.560;2023-04-26T10:07:22;3.53;;;3.22;;
33495;SDS011;19836;55.812;37.560;2023-04-26T10:09:49;3.58;;;3.20;;
33495;SDS011;19836;55.812;37.560;2023-04-26T10:12:16;3.60;;;3.40;;
33495;SDS011;19836;55.812;37.560;2023-04-26T10:14:44;3.78;;;3.40;;
33495;SDS011;19836;55.812;37.560;2023-04-26T10:17:12;4.15;;;3.85;;
33495;SDS011;19836;55.812;37.560;2023-04-26T10:19:39;3.83;;;3.33;;
33495;SDS011;19836;55.812;37.560;2023-04-26T10:22:15;4.03;;;3.72;;
33495;SDS011;19836;55.812;37.560;2023-04-26T10:24:46;3.78;;;3.47;;
33495;SDS011;19836;55.812;37.560;2023-04-26T10:27:13;3.45;;;3.15;;
33495;SDS011;19836;55.812;37.560;2023-04-26T10:32:21;4.60;;;4.20;;
33495;SDS011;19836;55.812;37.560;2023-04-26T10:40:23;4.28;;;3.30;;
33495;SDS011;19836;55.812;37.560;2023-04-26T10:42:51;3.95;;;3.65;;
33495;SDS011;19836;55.812;37.560;2023-04-26T10:45:38;4.50;;;3.88;;
33495;SDS011;19836;55.812;37.560;2023-04-26T10:48:18;4.03;;;3.72;;
33495;SDS011;19836;55.812;37.560;2023-04-26T10:53:31;4.55;;;4.15;;
33495;SDS011;19836;55.812;37.560;2023-04-26T10:56:00;4.40;;;4.00;;
33495;SDS011;19836;55.812;37.560;2023-04-26T11:03:41;3.55;;;3.30;;
33495;SDS011;19836;55.812;37.560;2023-04-26T11:06:08;3.40;;;3.10;;
33495;SDS011;19836;55.812;37.560;2023-04-26T11:08:38;3.20;;;2.90;;
33495;SDS011;19836;55.812;37.560;2023-04-26T11:11:05;2.65;;;2.40;;
33495;SDS011;19836;55.812;37.560;2023-04-26T11:13:37;2.72;;;2.30;;
33495;SDS011;19836;55.812;37.560;2023-04-26T11:16:05;2.13;;;1.85;;
33495;SDS011;19836;55.812;37.560;2023-04-26T11:18:33;2.35;;;1.80;;
33495;SDS011;19836;55.812;37.560;2023-04-26T11:21:01;1.48;;;1.38;;
33495;SDS011;19836;55.812;37.560;2023-04-26T11:23:29;0.70;;;0.70;;
33495;SDS011;19836;55.812;37.560;2023-04-26T11:25:56;1.00;;;0.60;;
33495;SDS011;19836;55.812;37.560;2023-04-26T11:28:29;0.70;;;0.70;;
33495;SDS011;19836;55.812;37.560;2023-04-26T11:30:56;0.80;;;0.80;;
33495;SDS011;19836;55.812;37.560;2023-04-26T11:33:22;1.27;;;0.60;;
33495;SDS011;19836;55.812;37.560;2023-04-26T11:35:49;0.88;;;0.82;;
33495;SDS011;19836;55.812;37.560;2023-04-26T11:38:16;1.23;;;0.57;;
33495;SDS011;19836;55.812;37.560;2023-04-26T11:40:43;2.17;;;0.70;;
33495;SDS011;19836;55.812;37.560;2023-04-26T11:43:09;0.55;;;0.55;;
33495;SDS011;19836;55.812;37.560;2023-04-26T11:45:36;1.40;;;0.60;;
33495;SDS011;19836;55.812;37.560;2023-04-26T11:48:03;0.82;;;0.82;;
33495;SDS011;19836;55.812;37.560;2023-04-26T11:50:32;0.77;;;0.68;;
33495;SDS011;19836;55.812;37.560;2023-04-26T11:53:02;1.02;;;0.93;;
33495;SDS011;19836;55.812;37.560;2023-04-26T11:55:29;1.48;;;0.80;;
33495;SDS011;19836;55.812;37.560;2023-04-26T11:57:58;1.42;;;0.75;;
33495;SDS011;19836;55.812;37.560;2023-04-26T12:00:25;3.47;;;3.17;;
33495;SDS011;19836;55.812;37.560;2023-04-26T12:02:51;1.95;;;1.00;;
33495;SDS011;19836;55.812;37.560;2023-04-26T12:07:57;1.45;;;1.10;;
33495;SDS011;19836;55.812;37.560;2023-04-26T12:10:32;1.10;;;0.90;;
33495;SDS011;19836;55.812;37.560;2023-04-26T12:13:03;0.80;;;0.80;;
33495;SDS011;19836;55.812;37.560;2023-04-26T12:15:30;1.70;;;0.90;;
33495;SDS011;19836;55.812;37.560;2023-04-26T12:18:04;0.90;;;0.90;;
33495;SDS011;19836;55.812;37.560;2023-04-26T12:20:33;1.25;;;0.90;;
33495;SDS011;19836;55.812;37.560;2023-04-26T12:23:01;1.77;;;1.20;;
33495;SDS011;19836;55.812;37.560;2023-04-26T12:25:28;1.23;;;0.90;;
33495;SDS011;19836;55.812;37.560;2023-04-26T12:27:55;1.17;;;1.08;;
33495;SDS011;19836;55.812;37.560;2023-04-26T12:30:21;2.40;;;1.70;;
33495;SDS011;19836;55.812;37.560;2023-04-26T12:33:00;2.78;;;2.47;;
33495;SDS011;19836;55.812;37.560;2023-04-26T12:35:26;2.38;;;1.35;;
33495;SDS011;19836;55.812;37.560;2023-04-26T12:37:53;1.40;;;1.30;;
33495;SDS011;19836;55.812;37.560;2023-04-26T12:40:24;2.25;;;1.08;;
33495;SDS011;19836;55.812;37.560;2023-04-26T12:42:51;1.10;;;1.00;;
33495;SDS011;19836;55.812;37.560;2023-04-26T12:45:17;1.40;;;1.10;;
33495;SDS011;19836;55.812;37.560;2023-04-26T12:47:44;1.00;;;0.95;;
33495;SDS011;19836;55.812;37.560;2023-04-26T12:50:11;2.08;;;1.00;;
33495;SDS011;19836;55.812;37.560;2023-04-26T12:52:39;1.20;;;1.10;;
33495;SDS011;19836;55.812;37.560;2023-04-26T12:55:07;0.93;;;0.90;;
33495;SDS011;19836;55.812;37.560;2023-04-26T12:57:37;1.88;;;1.20;;
33495;SDS011;19836;55.812;37.560;2023-04-26T13:00:05;2.85;;;1.70;;
33495;SDS011;19836;55.812;37.560;2023-04-26T13:02:34;0.98;;;0.90;;
33495;SDS011;19836;55.812;37.560;2023-04-26T13:05:00;2.80;;;1.10;;
33495;SDS011;19836;55.812;37.560;2023-04-26T13:07:32;1.52;;;0.98;;
33495;SDS011;19836;55.812;37.560;2023-04-26T13:10:00;1.33;;;0.90;;
33495;SDS011;19836;55.812;37.560;2023-04-26T13:12:28;1.75;;;1.00;;
33495;SDS011;19836;55.812;37.560;2023-04-26T13:14:54;1.25;;;1.00;;
33495;SDS011;19836;55.812;37.560;2023-04-26T13:17:22;1.10;;;0.90;;
33495;SDS011;19836;55.812;37.560;2023-04-26T13:19:49;0.77;;;0.77;;
33495;SDS011;19836;55.812;37.560;2023-04-26T13:22:17;1.98;;;1.13;;
33495;SDS011;19836;55.812;37.560;2023-04-26T13:24:44;1.75;;;1.20;;
33495;SDS011;19836;55.812;37.560;2023-04-26T13:27:11;1.75;;;0.90;;
33495;SDS011;19836;55.812;37.560;2023-04-26T13:29:38;1.25;;;1.10;;
33495;SDS011;19836;55.812;37.560;2023-04-26T13:32:05;1.00;;;0.90;;
33495;SDS011;19836;55.812;37.560;2023-04-26T13:34:31;2.78;;;1.10;;
33495;SDS011;19836;55.812;37.560;2023-04-26T13:36:57;1.88;;;1.08;;
33495;SDS011;19836;55.812;37.560;2023-04-26T13:39:26;2.35;;;1.02;;
33495;SDS011;19836;55.812;37.560;2023-04-26T13:41:53;2.03;;;0.90;;
33495;SDS011;19836;55.812;37.560;2023-04-26T13:44:19;3.70;;;1.00;;
33495;SDS011;19836;55.812;37.560;2023-04-26T13:46:45;1.15;;;0.98;;
33495;SDS011;19836;55.812;37.560;2023-04-26T13:49:11;2.30;;;0.90;;
33495;SDS011;19836;55.812;37.560;2023-04-26T13:51:39;1.98;;;1.27;;
33495;SDS011;19836;55.812;37.560;2023-04-26T13:54:05;1.55;;;1.00;;
33495;SDS011;19836;55.812;37.560;2023-04-26T13:56:31;1.33;;;1.15;;
33495;SDS011;19836;55.812;37.560;2023-04-26T13:58:58;2.97;;;2.70;;
33495;SDS011;19836;55.812;37.560;2023-04-26T14:01:26;2.92;;;1.40;;
33495;SDS011;19836;55.812;37.560;2023-04-26T14:03:52;2.65;;;2.03;;
33495;SDS011;19836;55.812;37.560;2023-04-26T14:06:18;2.13;;;1.50;;
33495;SDS011;19836;55.812;37.560;2023-04-26T14:08:44;1.67;;;1.40;;
33495;SDS011;19836;55.812;37.560;2023-04-26T14:11:10;6.28;;;3.65;;
33495;SDS011;19836;55.812;37.560;2023-04-26T14:13:37;1.77;;;1.50;;
33495;SDS011;19836;55.812;37.560;2023-04-26T14:16:03;1.90;;;1.17;;
33495;SDS011;19836;55.812;37.560;2023-04-26T14:18:30;2.55;;;1.95;;
33495;SDS011;19836;55.812;37.560;2023-04-26T14:20:55;2.13;;;1.63;;
33495;SDS011;19836;55.812;37.560;2023-04-26T14:23:21;3.47;;;1.50;;
33495;SDS011;19836;55.812;37.560;2023-04-26T14:25:51;1.80;;;1.67;;
33495;SDS011;19836;55.812;37.560;2023-04-26T14:28:17;4.10;;;1.48;;
33495;SDS011;19836;55.812;37.560;2023-04-26T14:30:44;3.78;;;1.55;;
33495;SDS011;19836;55.812;37.560;2023-04-26T14:33:10;2.22;;;1.50;;
33495;SDS011;19836;55.812;37.560;2023-04-26T14:35:37;2.70;;;1.67;;
33495;SDS011;19836;55.812;37.560;2023-04-26T14:38:03;4.15;;;2.00;;
33495;SDS011;19836;55.812;37.560;2023-04-26T14:40:29;3.38;;;1.85;;
33495;SDS011;19836;55.812;37.560;2023-04-26T14:42:56;2.42;;;1.50;;
33495;SDS011;19836;55.812;37.560;2023-04-26T14:45:22;2.08;;;1.88;;
33495;SDS011;19836;55.812;37.560;2023-04-26T14:47:48;2.83;;;1.75;;
33495;SDS011;19836;55.812;37.560;2023-04-26T14:50:13;2.92;;;1.50;;
33495;SDS011;19836;55.812;37.560;2023-04-26T14:52:40;2.58;;;1.42;;
33495;SDS011;19836;55.812;37.560;2023-04-26T14:55:06;1.30;;;1.20;;
33495;SDS011;19836;55.812;37.560;2023-04-26T14:57:32;2.25;;;1.50;;
33495;SDS011;19836;55.812;37.560;2023-04-26T14:59:59;1.40;;;1.23;;